createdAt,value
2018-03-03T00:01:27.151Z,69.03
2018-03-03T00:03:55.680Z,66.65
2018-03-03T00:06:23.982Z,72.47
2018-03-03T00:08:51.648Z,65.22
2018-03-03T00:11:19.197Z,73.32
2018-03-03T00:13:46.739Z,68.53
2018-03-03T00:16:15.094Z,68.25
2018-03-03T00:18:42.766Z,66.72
2018-03-03T00:21:10.294Z,75.45
2018-03-03T00:23:37.849Z,72.15
2018-03-03T00:26:05.432Z,72.45
2018-03-03T00:28:33.833Z,70.40
2018-03-03T00:31:02.193Z,70.85
2018-03-03T00:33:29.808Z,69.53
2018-03-03T00:35:57.376Z,72.68
2018-03-03T00:38:24.900Z,68.37
2018-03-03T00:40:53.254Z,69.80
2018-03-03T00:43:20.843Z,65.53
2018-03-03T00:45:48.464Z,66.18
2018-03-03T00:48:15.979Z,65.68
2018-03-03T00:50:43.520Z,68.62
2018-03-03T00:53:11.041Z,70.60
2018-03-03T00:55:38.961Z,73.28
2018-03-03T00:58:06.486Z,68.87
2018-03-03T01:00:35.056Z,71.55
2018-03-03T01:03:02.617Z,74.25
2018-03-03T01:05:30.219Z,70.15
2018-03-03T01:07:57.778Z,73.03
2018-03-03T01:10:25.376Z,67.78
2018-03-03T01:12:52.928Z,67.97
2018-03-03T01:15:20.548Z,72.07
2018-03-03T01:17:48.955Z,68.85
2018-03-03T01:20:16.608Z,69.37
2018-03-03T01:22:44.225Z,70.55
2018-03-03T01:25:11.769Z,72.00
2018-03-03T01:27:39.388Z,67.62
2018-03-03T01:30:06.927Z,65.75
2018-03-03T01:32:34.484Z,66.45
2018-03-03T01:35:02.763Z,64.28
2018-03-03T01:37:30.310Z,68.70
2018-03-03T01:39:58.717Z,66.32
2018-03-03T01:42:26.320Z,67.00
2018-03-03T01:44:53.863Z,67.70
2018-03-03T01:47:21.449Z,63.97
2018-03-03T01:49:48.967Z,66.55
2018-03-03T01:52:16.507Z,67.78
2018-03-03T01:54:44.066Z,67.85
2018-03-03T01:57:11.612Z,66.05
2018-03-03T01:59:39.887Z,65.25
2018-03-03T02:02:08.205Z,66.85
2018-03-03T02:04:35.769Z,67.82
2018-03-03T02:07:03.416Z,65.62
2018-03-03T02:09:30.949Z,68.00
2018-03-03T02:11:58.506Z,65.97
2018-03-03T02:14:26.789Z,70.00
2018-03-03T02:16:54.342Z,68.85
2018-03-03T02:19:22.646Z,66.53
2018-03-03T02:21:50.202Z,67.47
2018-03-03T02:24:17.768Z,68.75
2018-03-03T02:26:45.310Z,65.85
2018-03-03T02:29:12.827Z,70.30
2018-03-03T02:31:40.383Z,71.07
2018-03-03T02:34:07.911Z,64.72
2018-03-03T02:36:35.456Z,69.80
2018-03-03T02:39:02.992Z,66.57
2018-03-03T02:41:30.552Z,67.30
2018-03-03T02:43:58.837Z,69.15
2018-03-03T02:46:26.386Z,68.80
2018-03-03T02:48:53.948Z,66.93
2018-03-03T02:51:21.515Z,64.25
2018-03-03T02:53:49.037Z,66.45
2018-03-03T02:56:17.491Z,63.58
2018-03-03T02:58:45.940Z,65.47
2018-03-03T03:01:13.564Z,65.03
2018-03-03T03:03:41.160Z,61.45
2018-03-03T03:06:08.736Z,62.38
2018-03-03T03:08:36.269Z,65.10
2018-03-03T03:11:04.573Z,62.75
2018-03-03T03:13:32.113Z,67.15
2018-03-03T03:15:59.677Z,59.60
2018-03-03T03:18:27.212Z,61.45
2018-03-03T03:20:55.526Z,61.30
2018-03-03T03:23:23.052Z,63.60
2018-03-03T03:25:51.423Z,59.30
2018-03-03T03:28:19.733Z,63.47
2018-03-03T03:30:47.272Z,66.50
2018-03-03T03:33:15.640Z,59.13
2018-03-03T03:35:44.050Z,60.95
2018-03-03T03:38:12.415Z,60.03
2018-03-03T03:40:39.959Z,59.88
2018-03-03T03:43:08.359Z,59.45
2018-03-03T03:45:35.910Z,61.67
2018-03-03T03:48:03.448Z,64.37
2018-03-03T03:50:31.763Z,60.45
2018-03-03T03:52:59.275Z,62.75
2018-03-03T03:55:26.817Z,59.83
2018-03-03T03:57:54.353Z,62.50
2018-03-03T04:00:21.889Z,62.88
2018-03-03T04:02:49.416Z,57.90
2018-03-03T04:05:17.731Z,61.20
2018-03-03T04:07:45.259Z,62.05
2018-03-03T04:10:13.575Z,62.35
2018-03-03T04:12:41.084Z,58.83
2018-03-03T04:15:08.672Z,57.62
2018-03-03T04:17:36.208Z,58.42
2018-03-03T04:20:04.611Z,56.08
2018-03-03T04:22:32.133Z,58.75
2018-03-03T04:24:59.700Z,59.75
2018-03-03T04:27:27.216Z,60.47
2018-03-03T04:29:54.800Z,59.83
2018-03-03T04:32:22.303Z,56.78
2018-03-03T04:34:49.873Z,60.58
2018-03-03T04:37:17.422Z,59.47
2018-03-03T04:39:44.984Z,58.80
2018-03-03T04:42:12.544Z,55.97
2018-03-03T04:44:40.084Z,57.20
2018-03-03T04:47:08.371Z,59.88
2018-03-03T04:49:36.679Z,58.80
2018-03-03T04:52:04.199Z,57.20
2018-03-03T04:54:32.554Z,61.25
2018-03-03T04:57:00.096Z,57.35
2018-03-03T04:59:33.556Z,61.28
2018-03-03T05:02:01.976Z,60.90
2018-03-03T05:04:46.321Z,60.55
2018-03-03T05:07:24.527Z,60.08
2018-03-03T05:09:52.063Z,61.45
2018-03-03T05:12:30.278Z,59.38
2018-03-03T05:18:06.553Z,63.13
2018-03-03T05:20:37.747Z,59.58
2018-03-03T05:23:10.958Z,59.17
2018-03-03T05:25:49.205Z,61.72
2018-03-03T05:28:22.328Z,61.03
2018-03-03T05:30:55.467Z,61.40
2018-03-03T05:33:28.847Z,61.70
2018-03-03T05:36:01.744Z,60.08
2018-03-03T05:38:35.764Z,58.63
2018-03-03T05:41:08.989Z,58.85
2018-03-03T05:43:54.323Z,61.45
2018-03-03T05:46:27.528Z,60.65
2018-03-03T05:49:09.966Z,63.35
2018-03-03T05:51:43.243Z,58.15
2018-03-03T05:54:16.283Z,58.42
2018-03-03T05:56:59.506Z,58.40
2018-03-03T05:59:30.547Z,59.50
2018-03-03T06:05:06.196Z,59.58
2018-03-03T06:07:39.436Z,56.35
2018-03-03T06:10:08.528Z,61.47
2018-03-03T06:12:36.036Z,62.03
2018-03-03T06:15:03.612Z,57.10
2018-03-03T06:17:31.146Z,59.42
2018-03-03T06:19:58.672Z,63.97
2018-03-03T06:22:26.240Z,60.10
2018-03-03T06:24:53.751Z,60.67
2018-03-03T06:27:21.316Z,57.10
2018-03-03T06:29:48.817Z,59.90
2018-03-03T06:32:16.391Z,56.85
2018-03-03T06:34:43.932Z,57.97
2018-03-03T06:37:11.468Z,58.78
2018-03-03T06:39:39.741Z,61.45
2018-03-03T06:42:08.067Z,59.63
2018-03-03T06:44:35.597Z,56.15
2018-03-03T06:47:03.161Z,59.10
2018-03-03T06:49:30.687Z,59.17
2018-03-03T06:51:58.288Z,62.00
2018-03-03T06:54:25.843Z,58.33
2018-03-03T06:56:53.383Z,59.80
2018-03-03T06:59:21.785Z,57.35
2018-03-03T07:01:49.388Z,61.70
2018-03-03T07:04:16.904Z,58.17
2018-03-03T07:06:44.564Z,58.13
2018-03-03T07:09:12.079Z,60.95
2018-03-03T07:11:39.666Z,58.72
2018-03-03T07:14:07.210Z,62.22
2018-03-03T07:16:37.312Z,57.13
2018-03-03T07:19:04.927Z,57.85
2018-03-03T07:21:32.488Z,58.50
2018-03-03T07:24:00.052Z,58.22
2018-03-03T07:26:27.604Z,57.35
2018-03-03T07:28:55.469Z,59.60
2018-03-03T07:31:23.021Z,55.38
2018-03-03T07:33:50.538Z,57.90
2018-03-03T07:36:18.841Z,56.58
2018-03-03T07:38:47.158Z,58.05
2018-03-03T07:41:14.789Z,58.58
2018-03-03T07:43:42.325Z,56.50
2018-03-03T07:46:10.642Z,57.05
2018-03-03T07:48:38.180Z,57.05
2018-03-03T07:51:05.725Z,58.92
2018-03-03T07:53:34.129Z,57.03
2018-03-03T07:56:01.697Z,57.30
2018-03-03T08:01:26.511Z,57.22
2018-03-03T08:03:54.040Z,57.08
2018-03-03T08:06:22.359Z,57.50
2018-03-03T08:08:49.907Z,55.63
2018-03-03T08:11:17.456Z,56.08
2018-03-03T08:13:44.970Z,57.22
2018-03-03T08:16:12.522Z,56.65
2018-03-03T08:18:40.074Z,60.42
2018-03-03T08:21:07.611Z,56.35
2018-03-03T08:23:35.165Z,56.85
2018-03-03T08:26:02.684Z,58.85
2018-03-03T08:28:31.000Z,55.65
2018-03-03T08:30:58.914Z,58.70
2018-03-03T08:33:26.492Z,58.55
2018-03-03T08:35:54.778Z,63.45
2018-03-03T08:38:22.350Z,54.35
2018-03-03T08:40:50.851Z,56.80
2018-03-03T08:43:18.602Z,58.35
2018-03-03T08:45:46.126Z,54.90
2018-03-03T08:48:14.442Z,56.95
2018-03-03T08:50:41.971Z,55.92
2018-03-03T08:53:10.283Z,57.05
2018-03-03T08:55:37.810Z,58.58
2018-03-03T08:58:06.142Z,56.80
2018-03-03T09:00:33.790Z,57.17
2018-03-03T09:03:01.438Z,57.88
2018-03-03T09:05:29.031Z,59.67
2018-03-03T09:07:56.638Z,55.90
2018-03-03T09:10:25.185Z,56.92
2018-03-03T09:12:52.736Z,56.17
2018-03-03T09:15:20.346Z,55.28
2018-03-03T09:17:47.958Z,59.50
2018-03-03T09:20:15.490Z,53.65
2018-03-03T09:22:43.118Z,58.00
2018-03-03T09:25:10.638Z,55.25
2018-03-03T09:27:38.249Z,56.35
2018-03-03T09:30:05.779Z,58.05
2018-03-03T09:32:34.103Z,55.65
2018-03-03T09:35:01.640Z,58.55
2018-03-03T09:37:29.170Z,58.33
2018-03-03T09:39:57.506Z,59.63
2018-03-03T09:42:25.047Z,52.97
2018-03-03T09:44:52.599Z,50.85
2018-03-03T09:47:20.233Z,60.15
2018-03-03T09:49:48.572Z,55.75
2018-03-03T09:52:16.179Z,54.50
2018-03-03T09:54:43.754Z,52.62
2018-03-03T09:57:12.064Z,54.38
2018-03-03T09:59:39.631Z,54.10
2018-03-03T10:02:07.235Z,57.08
2018-03-03T10:04:34.776Z,56.17
2018-03-03T10:07:03.240Z,56.20
2018-03-03T10:09:30.894Z,54.05
2018-03-03T10:11:58.431Z,52.62
2018-03-03T10:14:26.143Z,59.17
2018-03-03T10:16:54.543Z,53.45
2018-03-03T10:19:22.080Z,49.30
2018-03-03T10:21:49.654Z,49.35
2018-03-03T10:24:18.988Z,50.40
2018-03-03T10:26:47.113Z,49.33
2018-03-03T10:29:17.099Z,50.20
2018-03-03T10:31:45.764Z,50.90
2018-03-03T10:34:14.531Z,47.13
2018-03-03T10:36:42.097Z,49.33
2018-03-03T10:39:10.380Z,48.20
2018-03-03T10:41:37.939Z,47.40
2018-03-03T10:44:06.084Z,46.17
2018-03-03T10:46:35.320Z,50.33
2018-03-03T10:49:02.839Z,49.53
2018-03-03T10:51:31.213Z,46.42
2018-03-03T10:53:59.728Z,49.50
2018-03-03T10:56:27.371Z,48.17
2018-03-03T10:58:54.923Z,49.75
2018-03-03T11:01:23.368Z,47.08
2018-03-03T11:03:50.870Z,48.55
2018-03-03T11:06:18.418Z,47.28
2018-03-03T11:08:46.946Z,43.80
2018-03-03T11:11:16.720Z,45.47
2018-03-03T11:13:55.863Z,46.63
2018-03-03T11:16:24.279Z,47.60
2018-03-03T11:18:51.837Z,49.35
2018-03-03T11:21:19.924Z,46.08
2018-03-03T11:23:47.450Z,44.85
2018-03-03T11:26:15.008Z,45.35
2018-03-03T11:28:44.610Z,45.55
2018-03-03T11:31:12.272Z,47.80
2018-03-03T11:33:39.811Z,48.67
2018-03-03T11:36:07.453Z,48.08
2018-03-03T11:38:37.760Z,50.22
2018-03-03T11:41:06.104Z,48.85
2018-03-03T11:43:34.380Z,49.17
2018-03-03T11:46:01.948Z,51.08
2018-03-03T11:48:29.554Z,51.83
2018-03-03T11:50:57.936Z,50.53
2018-03-03T11:53:26.340Z,52.70
2018-03-03T11:55:54.424Z,50.25
2018-03-03T11:58:22.032Z,53.90
2018-03-03T12:00:49.583Z,52.67
2018-03-03T12:03:17.143Z,52.00
2018-03-03T12:05:44.740Z,51.85
2018-03-03T12:08:12.293Z,51.10
2018-03-03T12:10:39.863Z,50.28
2018-03-03T12:13:07.382Z,50.33
2018-03-03T12:15:34.999Z,47.85
2018-03-03T12:18:02.559Z,51.10
2018-03-03T12:20:30.325Z,52.35
2018-03-03T12:22:57.976Z,52.03
2018-03-03T12:25:25.648Z,52.67
2018-03-03T12:27:53.198Z,52.47
2018-03-03T12:30:20.771Z,51.00
2018-03-03T12:32:49.021Z,51.42
2018-03-03T12:35:16.578Z,51.95
2018-03-03T12:37:44.976Z,50.72
2018-03-03T12:40:12.536Z,50.83
2018-03-03T12:42:40.080Z,52.25
2018-03-03T12:45:07.628Z,50.92
2018-03-03T12:47:35.225Z,48.72
2018-03-03T12:50:03.491Z,49.67
2018-03-03T12:52:31.026Z,49.60
2018-03-03T12:54:58.656Z,48.83
2018-03-03T12:57:26.280Z,47.83
2018-03-03T12:59:53.835Z,50.25
2018-03-03T13:02:21.372Z,47.15
2018-03-03T13:04:48.931Z,47.20
2018-03-03T13:07:16.516Z,46.30
2018-03-03T13:09:54.021Z,45.00
2018-03-03T13:12:21.573Z,44.65
2018-03-03T13:14:49.083Z,46.45
2018-03-03T13:17:17.507Z,43.55
2018-03-03T13:19:45.088Z,46.70
2018-03-03T13:22:12.666Z,47.20
2018-03-03T13:24:40.246Z,45.40
2018-03-03T13:27:08.569Z,43.50
2018-03-03T13:29:37.401Z,47.33
2018-03-03T13:32:05.739Z,44.97
2018-03-03T13:34:33.248Z,46.63
2018-03-03T13:37:01.589Z,49.42
2018-03-03T13:39:29.139Z,47.60
2018-03-03T13:41:56.695Z,47.03
2018-03-03T13:44:24.276Z,47.65
2018-03-03T13:46:51.838Z,46.00
2018-03-03T13:49:19.384Z,45.50
2018-03-03T13:51:46.887Z,45.58
2018-03-03T13:54:15.250Z,46.85
2018-03-03T13:56:43.530Z,47.92
2018-03-03T13:59:11.938Z,48.35
2018-03-03T14:01:39.772Z,48.35
2018-03-03T14:04:07.366Z,48.50
2018-03-03T14:06:34.925Z,46.75
2018-03-03T14:09:02.428Z,50.70
2018-03-03T14:11:30.040Z,49.03
2018-03-03T14:13:57.542Z,48.05
2018-03-03T14:16:25.910Z,49.00
2018-03-03T14:18:53.545Z,47.40
2018-03-03T14:21:23.226Z,46.95
2018-03-03T14:23:52.390Z,48.42
2018-03-03T14:26:20.085Z,46.13
2018-03-03T14:28:47.690Z,48.17
2018-03-03T14:31:16.116Z,48.08
2018-03-03T14:33:46.446Z,48.03
2018-03-03T14:36:13.987Z,45.80
2018-03-03T14:38:42.435Z,46.47
2018-03-03T14:41:10.185Z,45.78
2018-03-03T14:43:37.745Z,45.25
2018-03-03T14:46:05.307Z,44.80
2018-03-03T14:48:32.840Z,45.63
2018-03-03T14:51:01.258Z,42.47
2018-03-03T14:53:29.587Z,44.65
2018-03-03T14:55:57.999Z,44.88
2018-03-03T14:58:25.612Z,43.75
2018-03-03T15:00:53.248Z,42.35
2018-03-03T15:03:23.950Z,43.20
2018-03-03T15:08:25.490Z,39.85
2018-03-03T15:10:54.433Z,41.42
2018-03-03T15:13:21.975Z,37.65
2018-03-03T15:15:49.567Z,38.78
2018-03-03T15:18:17.375Z,37.50
2018-03-03T15:20:45.686Z,38.90
2018-03-03T15:23:13.224Z,38.00
2018-03-03T15:25:40.876Z,37.65
2018-03-03T15:28:09.220Z,37.70
2018-03-03T15:30:36.759Z,37.03
2018-03-03T15:33:04.327Z,38.92
2018-03-03T15:35:43.845Z,40.33
2018-03-03T15:38:11.383Z,40.88
2018-03-03T15:40:38.955Z,38.33
2018-03-03T15:43:06.607Z,39.70
2018-03-03T15:45:35.241Z,38.15
2018-03-03T15:48:02.824Z,39.63
2018-03-03T15:50:31.169Z,34.80
2018-03-03T15:52:58.741Z,34.92
2018-03-03T15:55:26.382Z,33.97
2018-03-03T15:57:54.012Z,34.45
2018-03-03T16:00:21.571Z,35.65
2018-03-03T16:02:49.104Z,34.03
2018-03-03T16:05:17.436Z,34.58
2018-03-03T16:07:45.026Z,35.33
2018-03-03T16:10:12.646Z,35.92
2018-03-03T16:12:40.212Z,32.90
2018-03-03T16:15:07.903Z,35.58
2018-03-03T16:17:35.443Z,33.55
2018-03-03T16:20:03.107Z,34.33
2018-03-03T16:22:30.720Z,33.92
2018-03-03T16:24:58.405Z,35.40
2018-03-03T16:27:26.052Z,35.05
2018-03-03T16:29:53.591Z,34.38
2018-03-03T16:32:21.983Z,33.35
2018-03-03T16:34:49.625Z,35.85
2018-03-03T16:37:17.998Z,33.50
2018-03-03T16:39:47.196Z,32.50
2018-03-03T16:42:15.288Z,32.53
2018-03-03T16:44:42.816Z,34.72
2018-03-03T16:47:10.423Z,33.35
2018-03-03T16:49:38.018Z,37.13
2018-03-03T16:52:05.535Z,35.92
2018-03-03T16:54:33.100Z,36.50
2018-03-03T16:57:00.624Z,35.85
2018-03-03T16:59:29.021Z,36.42
2018-03-03T17:01:56.525Z,35.05
2018-03-03T17:04:24.098Z,37.70
2018-03-03T17:06:51.976Z,37.08
2018-03-03T17:09:19.513Z,37.80
2018-03-03T17:11:47.132Z,38.58
2018-03-03T17:14:14.729Z,37.88
2018-03-03T17:16:42.296Z,39.25
2018-03-03T17:19:09.848Z,38.00
2018-03-03T17:21:37.384Z,41.25
2018-03-03T17:24:05.060Z,39.65
2018-03-03T17:26:32.671Z,42.75
2018-03-03T17:29:00.990Z,43.25
2018-03-03T17:31:28.534Z,45.55
2018-03-03T17:33:56.086Z,44.50
2018-03-03T17:36:24.476Z,46.15
2018-03-03T17:38:52.010Z,44.05
2018-03-03T17:41:20.290Z,47.65
2018-03-03T17:43:48.586Z,46.30
2018-03-03T17:46:16.109Z,46.53
2018-03-03T17:48:44.491Z,44.22
2018-03-03T17:51:12.231Z,44.70
2018-03-03T17:53:39.818Z,43.85
2018-03-03T17:56:07.315Z,45.08
2018-03-03T17:58:34.971Z,44.67
2018-03-03T18:01:02.520Z,45.10
2018-03-03T18:03:30.077Z,47.10
2018-03-03T18:05:57.617Z,47.67
2018-03-03T18:08:26.183Z,46.72
2018-03-03T18:10:57.727Z,47.17
2018-03-03T18:13:31.983Z,46.30
2018-03-03T18:15:59.502Z,49.40
2018-03-03T18:18:32.245Z,45.28
2018-03-03T18:20:59.789Z,47.45
2018-03-03T18:23:27.327Z,46.40
2018-03-03T18:25:55.644Z,43.13
2018-03-03T18:28:23.789Z,47.25
2018-03-03T18:30:51.338Z,46.70
2018-03-03T18:33:19.680Z,45.22
2018-03-03T18:35:47.507Z,44.83
2018-03-03T18:38:15.185Z,47.15
2018-03-03T18:40:42.704Z,45.17
2018-03-03T18:43:11.009Z,44.90
2018-03-03T18:45:40.503Z,44.63
2018-03-03T18:48:08.044Z,44.47
2018-03-03T18:50:36.379Z,45.58
2018-03-03T18:53:04.035Z,45.47
2018-03-03T18:55:32.453Z,46.30
2018-03-03T18:58:00.787Z,48.30
2018-03-03T19:00:29.156Z,45.15
2018-03-03T19:02:56.792Z,46.42
2018-03-03T19:05:27.321Z,42.22
2018-03-03T19:07:55.826Z,46.33
2018-03-03T19:10:23.390Z,48.85
2018-03-03T19:12:50.943Z,48.22
2018-03-03T19:15:19.391Z,46.47
2018-03-03T19:17:48.411Z,48.17
2018-03-03T19:20:15.951Z,48.70
2018-03-03T19:22:43.534Z,47.90
2018-03-03T19:25:11.188Z,47.42
2018-03-03T19:27:38.787Z,50.25
2018-03-03T19:30:06.958Z,50.05
2018-03-03T19:32:34.608Z,49.08
2018-03-03T19:35:02.141Z,49.65
2018-03-03T19:37:29.689Z,50.92
2018-03-03T19:39:57.232Z,52.25
2018-03-03T19:42:27.524Z,50.90
2018-03-03T19:44:55.063Z,52.78
2018-03-03T19:47:22.609Z,53.28
2018-03-03T19:49:50.177Z,50.97
2018-03-03T19:52:17.831Z,49.92
2018-03-03T19:54:45.489Z,50.65
2018-03-03T19:57:13.066Z,52.15
2018-03-03T19:59:41.517Z,52.35
2018-03-03T20:02:10.711Z,49.20
2018-03-03T20:04:38.263Z,53.90
2018-03-03T20:07:06.573Z,55.28
2018-03-03T20:09:34.176Z,54.47
2018-03-03T20:12:02.286Z,51.97
2018-03-03T20:14:29.866Z,51.90
2018-03-03T20:16:58.354Z,51.53
2018-03-03T20:19:25.996Z,52.22
2018-03-03T20:21:53.573Z,53.50
2018-03-03T20:24:21.121Z,51.75
2018-03-03T20:26:48.764Z,54.08
2018-03-03T20:29:16.683Z,51.37
2018-03-03T20:31:44.237Z,50.35
2018-03-03T20:34:11.801Z,51.90
2018-03-03T20:36:39.379Z,51.75
2018-03-03T20:39:07.536Z,48.28
2018-03-03T20:41:35.138Z,48.03
2018-03-03T20:44:02.831Z,52.67
2018-03-03T20:46:31.392Z,51.17
2018-03-03T20:48:59.956Z,53.03
2018-03-03T20:51:27.623Z,51.10
2018-03-03T20:53:56.037Z,52.38
2018-03-03T20:56:23.674Z,54.83
2018-03-03T20:58:52.291Z,51.97
2018-03-03T21:01:19.905Z,51.78
2018-03-03T21:03:48.249Z,54.28
2018-03-03T21:06:16.148Z,52.42
2018-03-03T21:08:44.788Z,55.65
2018-03-03T21:11:15.969Z,54.22
2018-03-03T21:13:43.472Z,54.50
2018-03-03T21:16:11.062Z,56.15
2018-03-03T21:18:38.607Z,53.65
2018-03-03T21:21:07.439Z,54.78
2018-03-03T21:23:35.880Z,53.40
2018-03-03T21:26:03.516Z,57.03
2018-03-03T21:28:31.080Z,54.20
2018-03-03T21:30:58.655Z,56.80
2018-03-03T21:33:26.212Z,54.10
2018-03-03T21:35:53.873Z,55.08
2018-03-03T21:38:21.413Z,54.45
2018-03-03T21:40:48.966Z,55.88
2018-03-03T21:43:16.509Z,54.88
2018-03-03T21:45:44.928Z,56.30
2018-03-03T21:48:12.441Z,54.33
2018-03-03T21:50:40.756Z,55.72
2018-03-03T21:53:08.279Z,56.55
2018-03-03T21:55:36.680Z,55.72
2018-03-03T21:58:04.208Z,55.22
2018-03-03T22:00:32.519Z,56.80
2018-03-03T22:03:00.043Z,56.45
2018-03-03T22:05:28.363Z,56.25
2018-03-03T22:07:55.991Z,56.53
2018-03-03T22:10:24.398Z,58.13
2018-03-03T22:12:51.921Z,55.65
2018-03-03T22:15:20.271Z,55.35
2018-03-03T22:17:48.859Z,56.30
2018-03-03T22:20:16.555Z,58.85
2018-03-03T22:22:44.050Z,56.78
2018-03-03T22:25:11.618Z,56.78
2018-03-03T22:27:39.135Z,58.75
2018-03-03T22:30:07.533Z,53.83
2018-03-03T22:32:35.126Z,57.35
2018-03-03T22:35:02.712Z,56.00
2018-03-03T22:37:30.242Z,57.47
2018-03-03T22:39:57.876Z,56.10
2018-03-03T22:42:25.398Z,56.83
2018-03-03T22:44:53.720Z,59.53
2018-03-03T22:47:21.257Z,57.85
2018-03-03T22:49:48.929Z,56.10
2018-03-03T22:52:16.472Z,56.90
2018-03-03T22:54:44.790Z,52.88
2018-03-03T22:57:12.363Z,58.10
2018-03-03T22:59:39.917Z,55.67
2018-03-03T23:02:07.428Z,55.92
2018-03-03T23:04:35.765Z,56.63
2018-03-03T23:07:04.086Z,56.60
2018-03-03T23:09:31.622Z,59.42
2018-03-03T23:11:59.935Z,55.58
2018-03-03T23:14:27.457Z,60.17
2018-03-03T23:16:55.020Z,56.40
2018-03-03T23:19:23.300Z,58.53
2018-03-03T23:21:51.608Z,57.72
2018-03-03T23:24:19.168Z,57.75
2018-03-03T23:26:46.727Z,56.40
2018-03-03T23:29:14.283Z,60.30
2018-03-03T23:31:41.836Z,59.80
2018-03-03T23:34:09.378Z,55.90
2018-03-03T23:36:37.814Z,58.92
2018-03-03T23:39:05.338Z,60.33
2018-03-03T23:41:34.391Z,59.40
2018-03-03T23:44:02.705Z,59.65
2018-03-03T23:46:30.254Z,61.25
2018-03-03T23:48:58.655Z,62.17
2018-03-03T23:51:26.200Z,59.95
2018-03-03T23:53:53.719Z,58.95
2018-03-03T23:56:22.015Z,62.65
2018-03-03T23:58:50.312Z,56.58
